Time;durP1;ratioP1;P1;durP2;ratioP2;P2;SDS_P1;SDS_P2;PMS_P1;PMS_P2;Temp;Humidity;BMP_temperature;BMP_pressure;BME280_temperature;BME280_humidity;BME280_pressure;Samples;Min_cycle;Max_cycle;Signal;HPM_P1;HPM_P2
2021/12/18 00:00:10;;;;;;;20.10;17.00;;;;;;;-0.08;84.14;93059.69;5068657;28;20182;-78
2021/12/18 00:02:36;;;;;;;19.13;17.17;;;;;;;-0.09;85.78;93052.97;5068233;28;20223;-78
2021/12/18 00:05:01;;;;;;;20.57;17.97;;;;;;;-0.04;86.26;93065.19;5068968;28;20197;-77
2021/12/18 00:07:27;;;;;;;21.17;16.87;;;;;;;-0.23;86.81;93045.53;5067923;28;20235;-75
2021/12/18 00:09:53;;;;;;;21.70;17.23;;;;;;;-0.19;86.56;93055.19;5068584;28;21164;-75
2021/12/18 00:12:19;;;;;;;20.43;16.67;;;;;;;-0.10;86.62;93040.34;5068301;28;20241;-76
2021/12/18 00:14:44;;;;;;;19.87;17.87;;;;;;;-0.06;86.08;93064.59;5069646;28;20229;-75
2021/12/18 00:17:10;;;;;;;19.20;17.17;;;;;;;-0.22;85.81;93054.81;5068455;28;20233;-76
2021/12/18 00:19:36;;;;;;;19.77;17.67;;;;;;;-0.18;86.00;93049.06;5072513;28;20188;-76
2021/12/18 00:22:02;;;;;;;19.20;17.23;;;;;;;-0.09;84.98;93052.97;5071579;28;20198;-75
2021/12/18 00:24:27;;;;;;;19.83;17.90;;;;;;;-0.02;85.07;93051.16;5072452;28;20213;-75
2021/12/18 00:26:53;;;;;;;20.17;18.13;;;;;;;0.02;84.83;93066.94;5074900;28;20196;-76
2021/12/18 00:29:19;;;;;;;22.40;18.40;;;;;;;-0.21;83.78;93038.41;5092866;28;20272;-75
2021/12/18 00:31:45;;;;;;;20.17;17.00;;;;;;;-0.04;84.98;93067.75;5092237;28;20189;-76
2021/12/18 00:34:10;;;;;;;19.60;17.50;;;;;;;-0.03;85.09;93072.69;5071811;28;20280;-75
2021/12/18 00:36:36;;;;;;;21.10;17.40;;;;;;;0.06;83.83;93072.47;5072663;28;20194;-75
2021/12/18 00:39:01;;;;;;;20.27;18.13;;;;;;;-0.12;83.11;93058.53;5080182;28;20303;-75
2021/12/18 00:44:02;;;;;;;20.93;17.27;;;;;;;0.11;83.00;93068.28;5080392;28;20221;-75
2021/12/18 00:46:49;;;;;;;24.37;18.33;;;;;;;0.11;82.98;93070.09;5083798;28;20200;-75
2021/12/18 00:49:18;;;;;;;19.47;17.40;;;;;;;-0.11;81.97;93031.88;5070463;28;20257;-75
2021/12/18 00:51:44;;;;;;;21.17;16.33;;;;;;;0.00;82.13;93066.38;5070488;28;20850;-76
2021/12/18 00:54:09;;;;;;;21.03;16.80;;;;;;;0.22;83.04;93072.78;5072032;28;20189;-75
2021/12/18 00:56:35;;;;;;;19.43;16.10;;;;;;;0.12;81.19;93057.03;5072031;28;20265;-75
2021/12/18 00:59:01;;;;;;;18.23;16.33;;;;;;;-0.16;80.61;93031.69;5104541;28;20232;-75
2021/12/18 01:01:28;;;;;;;17.27;15.27;;;;;;;0.05;80.11;93063.97;5072838;28;20257;-75
2021/12/18 01:03:55;;;;;;;16.67;15.10;;;;;;;0.24;80.72;93070.81;5089670;28;20251;-75
2021/12/18 01:06:22;;;;;;;19.30;16.30;;;;;;;0.13;80.77;93074.00;5091455;28;20261;-75
2021/12/18 01:08:52;;;;;;;17.83;16.20;;;;;;;0.17;80.62;93072.63;5092797;28;20224;-75
2021/12/18 01:14:02;;;;;;;18.77;16.10;;;;;;;0.08;81.61;93063.56;5092330;28;20216;-75
2021/12/18 01:16:37;;;;;;;16.53;14.67;;;;;;;-0.01;80.51;93059.66;5092215;28;20195;-75
2021/12/18 01:24:39;;;;;;;19.73;16.43;;;;;;;0.08;81.39;93066.13;5074018;28;20209;-75
2021/12/18 01:27:04;;;;;;;19.07;16.60;;;;;;;0.29;80.21;93081.25;5069789;28;20230;-75
2021/12/18 01:29:30;;;;;;;17.97;16.07;;;;;;;0.10;80.36;93056.44;5071287;28;20251;-75
2021/12/18 01:31:55;;;;;;;18.47;16.57;;;;;;;-0.25;80.62;93017.50;5070911;28;20190;-75
2021/12/18 01:34:21;;;;;;;19.20;17.23;;;;;;;0.18;81.98;93050.28;5071812;28;20200;-75
2021/12/18 01:36:46;;;;;;;17.77;15.87;;;;;;;0.10;82.25;93053.88;5071842;28;20253;-75
2021/12/18 01:39:12;;;;;;;18.80;16.40;;;;;;;0.08;80.37;93062.78;5071057;28;20213;-77
2021/12/18 01:41:57;;;;;;;18.67;16.80;;;;;;;-0.08;80.36;93048.66;5072075;28;20283;-77
2021/12/18 01:51:16;;;;;;;17.07;15.40;;;;;;;0.08;79.27;93053.28;5074614;28;20239;-76
2021/12/18 01:52:40;;;;;;;17.83;16.13;;;;;;;0.18;80.36;93058.78;5090721;28;20227;-77
2021/12/18 01:55:06;;;;;;;18.80;17.10;;;;;;;-0.03;81.01;93051.38;5091137;28;20196;-76
2021/12/18 01:57:32;;;;;;;17.70;15.90;;;;;;;0.12;82.72;93048.53;5090415;28;20227;-77
2021/12/18 01:59:59;;;;;;;18.33;16.53;;;;;;;-0.06;82.20;93047.44;5091216;28;20216;-76
2021/12/18 02:02:25;;;;;;;17.90;16.20;;;;;;;-0.10;82.06;93058.31;5089736;28;20229;-76
2021/12/18 02:04:50;;;;;;;17.83;16.33;;;;;;;-0.19;82.28;93044.16;5090178;28;20192;-77
2021/12/18 02:07:16;;;;;;;18.67;16.97;;;;;;;-0.28;82.90;93029.97;5090319;28;20255;-76
2021/12/18 02:12:37;;;;;;;18.37;16.47;;;;;;;0.03;82.31;93057.47;5089795;28;20248;-77
2021/12/18 02:22:59;;;;;;;18.27;16.40;;;;;;;-0.21;83.65;93039.22;5089179;28;20217;-76
2021/12/18 02:25:25;;;;;;;16.77;15.17;;;;;;;-0.04;82.20;93060.06;5088248;28;20271;-76
2021/12/18 02:27:55;;;;;;;20.60;15.53;;;;;;;0.14;83.76;93037.06;5090054;28;20224;-76
2021/12/18 02:30:21;;;;;;;18.83;15.93;;;;;;;0.04;81.99;93057.28;5087456;28;20216;-76
2021/12/18 02:32:48;;;;;;;17.67;15.97;;;;;;;-0.18;82.14;93027.75;5087927;28;20228;-77
2021/12/18 02:35:28;;;;;;;19.03;17.07;;;;;;;-0.06;82.19;93046.66;5090362;28;20525;-76
2021/12/18 02:39:01;;;;;;;21.03;17.13;;;;;;;0.01;83.29;93049.97;5089723;28;20240;-76
2021/12/18 02:41:36;;;;;;;18.03;15.37;;;;;;;-0.14;82.18;93057.16;5085467;28;20204;-77
2021/12/18 02:44:08;;;;;;;17.37;15.57;;;;;;;-0.04;82.61;93054.94;5089006;28;20258;-76
2021/12/18 02:46:33;;;;;;;17.00;15.30;;;;;;;-0.20;81.35;93038.22;5089935;28;20241;-76
2021/12/18 02:49:06;;;;;;;18.83;17.03;;;;;;;-0.12;81.86;93053.38;5088971;28;20274;-76
2021/12/18 02:51:32;;;;;;;16.33;14.87;;;;;;;-0.11;82.78;93056.75;5089046;28;20185;-76
2021/12/18 02:53:57;;;;;;;17.67;16.03;;;;;;;0.02;82.51;93066.19;5087762;28;20324;-76
2021/12/18 02:56:23;;;;;;;17.83;16.03;;;;;;;0.07;82.51;93067.13;5119476;28;20201;-76
2021/12/18 02:59:04;;;;;;;17.30;15.80;;;;;;;0.06;84.66;93067.34;5087251;28;20221;-76
2021/12/18 03:01:31;;;;;;;19.27;17.27;;;;;;;-0.03;82.90;93072.69;5086875;28;20189;-77
2021/12/18 03:03:58;;;;;;;18.27;16.47;;;;;;;-0.13;83.25;93063.84;5087931;28;20229;-76
2021/12/18 03:25:09;;;;;;;19.03;16.40;;;;;;;-0.47;87.10;93082.88;5089680;28;20212;-76
2021/12/18 03:27:35;;;;;;;19.67;17.70;;;;;;;-0.32;87.25;93074.97;5088961;28;20229;-76
2021/12/18 03:30:19;;;;;;;22.13;18.63;;;;;;;-0.43;87.69;93085.84;5089178;28;20656;-76
2021/12/18 03:32:45;;;;;;;24.23;16.47;;;;;;;-0.44;88.30;93086.84;5088252;28;20235;-76
2021/12/18 03:35:12;;;;;;;21.03;17.83;;;;;;;-0.55;88.16;93051.53;5088620;28;20221;-77
2021/12/18 03:37:38;;;;;;;20.07;17.93;;;;;;;-0.45;88.31;93082.69;5088797;28;20236;-76
2021/12/18 03:40:08;;;;;;;22.57;19.13;;;;;;;-0.42;90.14;93088.19;5088675;28;20192;-76
2021/12/18 03:42:34;;;;;;;19.80;17.63;;;;;;;-0.38;89.13;93093.72;5088206;28;20220;-77
2021/12/18 03:45:00;;;;;;;20.70;17.10;;;;;;;-0.39;89.06;93092.16;5089760;28;20207;-77
2021/12/18 03:47:26;;;;;;;20.43;18.23;;;;;;;-0.63;89.10;93065.38;5082911;28;20213;-77
2021/12/18 03:49:52;;;;;;;21.07;17.57;;;;;;;-0.30;89.09;93094.31;5069500;28;20295;-76
2021/12/18 03:52:17;;;;;;;19.80;17.70;;;;;;;-0.41;89.35;93086.44;5069761;28;20233;-76
2021/12/18 03:54:43;;;;;;;20.33;18.13;;;;;;;-0.73;91.77;93069.34;5072120;28;20188;-76
2021/12/18 03:57:08;;;;;;;18.63;16.80;;;;;;;-0.77;91.67;93083.53;5073463;28;20221;-76
2021/12/18 03:59:34;;;;;;;17.43;15.83;;;;;;;-0.72;91.49;93101.66;5074611;28;20193;-76
2021/12/18 04:01:59;;;;;;;18.63;15.73;;;;;;;-0.86;91.89;93089.84;5074470;28;20965;-76
2021/12/18 04:04:25;;;;;;;18.17;16.47;;;;;;;-0.98;91.84;93058.13;5094268;28;20211;-76
2021/12/18 04:06:51;;;;;;;18.20;16.10;;;;;;;-0.80;91.03;93100.09;5091975;28;20216;-76
2021/12/18 04:09:16;;;;;;;19.60;17.60;;;;;;;-0.78;91.19;93081.94;5092433;28;20205;-76
2021/12/18 04:11:42;;;;;;;19.70;17.60;;;;;;;-0.72;90.31;93081.16;5094320;28;20246;-76
2021/12/18 04:14:08;;;;;;;18.13;16.23;;;;;;;-0.74;89.14;93076.22;5093377;28;20258;-76
2021/12/18 04:16:34;;;;;;;18.07;16.07;;;;;;;-0.58;88.66;93103.22;5093721;28;20689;-76
2021/12/18 04:19:01;;;;;;;17.60;16.03;;;;;;;-0.68;87.90;93090.00;5093369;28;20239;-76
2021/12/18 04:21:28;;;;;;;16.53;14.83;;;;;;;-0.52;87.89;93082.72;5092837;28;20200;-76
2021/12/18 04:23:54;;;;;;;17.13;15.43;;;;;;;-0.44;86.12;93109.91;5074974;28;20231;-76
2021/12/18 04:26:19;;;;;;;17.87;16.23;;;;;;;-0.60;86.36;93077.00;5073036;28;20197;-76
2021/12/18 04:28:45;;;;;;;17.50;15.70;;;;;;;-0.37;85.08;93110.66;5073337;28;20236;-76
2021/12/18 04:31:10;;;;;;;17.70;15.93;;;;;;;-0.29;85.05;93113.81;5072218;28;20217;-77
2021/12/18 04:33:36;;;;;;;16.33;14.00;;;;;;;-0.04;88.01;93117.31;5071977;28;20241;-77
2021/12/18 04:36:01;;;;;;;17.73;16.17;;;;;;;-0.21;87.62;93105.91;5073403;28;20220;-76
2021/12/18 04:38:27;;;;;;;18.73;16.27;;;;;;;-0.22;87.10;93106.13;5070849;28;20225;-76
2021/12/18 04:40:52;;;;;;;19.57;17.60;;;;;;;-0.45;86.75;93108.34;5071691;28;20240;-76
2021/12/18 04:43:18;;;;;;;17.23;15.37;;;;;;;-0.36;86.85;93105.34;5070685;28;20213;-76
2021/12/18 04:45:43;;;;;;;18.47;16.87;;;;;;;-0.15;86.46;93119.69;5072943;28;20189;-76
2021/12/18 04:48:08;;;;;;;20.50;15.40;;;;;;;-0.20;85.49;93122.06;5072733;28;20236;-76
2021/12/18 04:50:34;;;;;;;15.27;13.83;;;;;;;-0.21;84.61;93125.63;5072977;28;20220;-77
2021/12/18 04:52:59;;;;;;;15.67;14.30;;;;;;;-0.20;85.05;93134.91;5070528;28;20265;-76
2021/12/18 04:55:25;;;;;;;17.33;15.60;;;;;;;-0.21;85.29;93120.50;5072663;28;20189;-76
2021/12/18 04:57:52;;;;;;;15.77;14.37;;;;;;;-0.20;84.25;93119.50;5073159;28;20229;-77
2021/12/18 05:00:20;;;;;;;16.17;14.87;;;;;;;-0.19;83.62;93131.38;5071788;28;20181;-77
2021/12/18 05:02:47;;;;;;;15.40;14.17;;;;;;;-0.38;84.23;93127.06;5078893;28;20224;-76
2021/12/18 05:05:14;;;;;;;16.43;15.03;;;;;;;-0.22;83.72;93144.59;5090197;28;20189;-76
2021/12/18 05:07:41;;;;;;;14.77;13.60;;;;;;;-0.30;83.53;93144.81;5091310;28;20225;-76
2021/12/18 05:10:08;;;;;;;15.70;14.30;;;;;;;-0.34;83.99;93138.47;5091638;28;20212;-77
2021/12/18 05:12:33;;;;;;;15.10;13.70;;;;;;;-0.17;84.10;93153.25;5090428;28;20243;-76
2021/12/18 05:15:00;;;;;;;15.60;14.40;;;;;;;-0.19;83.33;93159.59;5090848;28;20223;-77
2021/12/18 05:17:26;;;;;;;14.93;13.57;;;;;;;-0.37;83.71;93151.72;5091783;28;20364;-77
2021/12/18 05:19:51;;;;;;;15.90;14.40;;;;;;;-0.20;84.20;93163.13;5091659;28;20205;-77
2021/12/18 05:22:17;;;;;;;15.50;14.07;;;;;;;-0.22;84.61;93152.28;5091453;28;20300;-76
2021/12/18 05:24:42;;;;;;;17.00;15.40;;;;;;;-0.32;84.56;93180.91;5091580;28;20205;-74
2021/12/18 05:27:08;;;;;;;17.63;15.73;;;;;;;-0.24;85.74;93185.03;5088780;28;20239;-75
2021/12/18 05:29:33;;;;;;;16.93;15.07;;;;;;;-0.34;86.25;93174.38;5089691;28;20231;-75
2021/12/18 05:31:59;;;;;;;16.60;15.00;;;;;;;-0.29;84.82;93200.22;5089011;28;20208;-75
2021/12/18 05:34:26;;;;;;;17.83;15.27;;;;;;;-0.37;85.57;93177.34;5088800;28;20203;-75
2021/12/18 05:39:27;;;;;;;17.43;15.67;;;;;;;-0.31;85.02;93177.34;5068821;28;20238;-73
2021/12/18 05:41:53;;;;;;;15.57;14.27;;;;;;;-0.24;84.35;93192.75;5068614;28;20224;-78
2021/12/18 05:44:21;;;;;;;15.47;13.93;;;;;;;-0.39;84.56;93174.97;5069213;28;20197;-74
2021/12/18 05:46:47;;;;;;;17.13;15.43;;;;;;;-0.23;84.64;93194.31;5070204;28;20185;-74
2021/12/18 05:49:14;;;;;;;15.97;13.93;;;;;;;-0.26;83.94;93202.41;5068681;28;20212;-74
2021/12/18 05:51:40;;;;;;;16.17;14.87;;;;;;;-0.37;86.07;93157.63;5070567;28;20661;-75
2021/12/18 05:54:06;;;;;;;15.17;13.97;;;;;;;-0.12;85.33;93183.44;5071019;28;20217;-75
2021/12/18 05:56:32;;;;;;;16.23;14.63;;;;;;;-0.25;83.99;93201.44;5070005;28;20216;-75
2021/12/18 05:58:58;;;;;;;16.30;14.87;;;;;;;-0.29;84.26;93195.09;5089486;28;20228;-74
2021/12/18 06:01:25;;;;;;;15.40;14.00;;;;;;;-0.33;84.51;93199.84;5089151;28;20185;-74
2021/12/18 06:03:50;;;;;;;16.53;15.10;;;;;;;-0.37;84.35;93201.22;5072766;28;20288;-75
2021/12/18 06:06:16;;;;;;;16.40;14.90;;;;;;;-0.32;84.41;93195.50;5069233;28;20477;-75
2021/12/18 06:08:42;;;;;;;15.47;14.10;;;;;;;-0.51;84.50;93176.56;5070351;28;20222;-73
2021/12/18 06:11:15;;;;;;;15.97;14.47;;;;;;;-0.43;85.13;93181.50;5068879;28;20229;-77
2021/12/18 06:13:46;;;;;;;17.00;15.30;;;;;;;-0.40;86.08;93216.22;5068514;28;20860;-75
2021/12/18 06:16:12;;;;;;;17.67;16.07;;;;;;;-0.49;86.13;93218.22;5085379;28;20233;-76
2021/12/18 06:18:44;;;;;;;16.47;14.97;;;;;;;-0.47;86.93;93212.88;5066187;28;20235;-75
2021/12/18 06:21:14;;;;;;;36.63;33.87;;;;;;;-0.44;86.63;93197.09;5069171;28;20208;-74
2021/12/18 06:23:46;;;;;;;18.60;16.80;;;;;;;-0.53;86.86;93227.25;5067752;28;20240;-73
2021/12/18 06:26:13;;;;;;;17.80;16.00;;;;;;;-0.54;87.53;93233.38;5099417;28;20189;-77
2021/12/18 06:28:39;;;;;;;24.23;21.90;;;;;;;-0.57;89.41;93223.53;5084454;28;20220;-76
2021/12/18 06:31:05;;;;;;;27.90;25.23;;;;;;;-0.53;88.57;93250.34;5090132;28;20243;-76
2021/12/18 06:33:30;;;;;;;27.97;24.27;;;;;;;-0.67;88.81;93217.22;5073856;28;20228;-76
2021/12/18 06:35:56;;;;;;;27.13;24.80;;;;;;;-0.85;89.84;93188.78;5067826;28;20189;-78
2021/12/18 06:38:21;;;;;;;18.43;16.40;;;;;;;-0.51;90.12;93247.56;5069102;28;20225;-78
2021/12/18 06:40:47;;;;;;;23.13;20.97;;;;;;;-0.45;90.87;93251.94;5070335;28;20181;-73
2021/12/18 06:43:13;;;;;;;19.10;17.10;;;;;;;-0.42;90.94;93256.69;5067315;28;20252;-73
2021/12/18 06:45:38;;;;;;;20.13;18.00;;;;;;;-0.66;90.58;93234.16;5070683;28;20189;-75
2021/12/18 06:48:04;;;;;;;19.23;17.33;;;;;;;-0.61;89.92;93239.50;5078644;28;20236;-74
2021/12/18 06:50:30;;;;;;;20.30;18.20;;;;;;;-0.50;89.69;93262.00;5088854;28;20209;-73
2021/12/18 06:52:55;;;;;;;20.00;17.63;;;;;;;-0.69;90.09;93219.16;5088783;28;20358;-77
2021/12/18 06:55:21;;;;;;;20.63;17.57;;;;;;;-0.52;89.70;93267.31;5088924;28;20192;-77
2021/12/18 06:57:47;;;;;;;19.50;17.50;;;;;;;-0.37;91.52;93264.56;5090193;28;20227;-77
2021/12/18 07:00:14;;;;;;;19.93;17.20;;;;;;;-0.53;89.16;93241.88;5087920;28;20210;-76
2021/12/18 07:02:40;;;;;;;18.77;16.97;;;;;;;-0.29;89.42;93264.34;5088121;28;20220;-77
2021/12/18 07:05:07;;;;;;;18.87;16.43;;;;;;;-0.44;88.96;93248.38;5088200;28;20216;-78
2021/12/18 07:07:32;;;;;;;18.10;16.30;;;;;;;-0.44;87.91;93245.81;5081646;28;20229;-72
2021/12/18 07:09:58;;;;;;;18.30;16.60;;;;;;;-0.11;88.54;93285.88;5069128;28;20221;-76
2021/12/18 07:12:23;;;;;;;19.70;17.83;;;;;;;-0.29;88.35;93272.84;5065814;28;20243;-76
2021/12/18 07:14:49;;;;;;;19.63;17.73;;;;;;;-0.72;89.19;93234.94;5067768;28;20217;-74
2021/12/18 07:17:14;;;;;;;21.30;19.20;;;;;;;-0.15;88.67;93300.09;5067343;28;20217;-73
2021/12/18 07:19:40;;;;;;;21.30;18.40;;;;;;;-0.22;88.88;93283.13;5068994;28;20216;-75
2021/12/18 07:22:05;;;;;;;18.70;16.97;;;;;;;-0.22;90.25;93285.69;5068445;28;20225;-76
2021/12/18 07:24:31;;;;;;;17.97;16.33;;;;;;;-0.26;88.60;93280.16;5066814;28;20192;-78
2021/12/18 07:26:57;;;;;;;20.03;18.00;;;;;;;-0.10;88.69;93291.81;5067388;28;20190;-77
2021/12/18 07:29:23;;;;;;;19.77;17.07;;;;;;;0.16;87.56;93289.22;5067429;28;20265;-76
2021/12/18 07:31:50;;;;;;;16.33;14.87;;;;;;;0.39;84.77;93289.56;5069771;28;20181;-74
2021/12/18 07:34:15;;;;;;;16.80;15.23;;;;;;;0.65;84.76;93306.72;5088133;28;20185;-73
2021/12/18 07:36:41;;;;;;;16.53;15.03;;;;;;;0.57;83.43;93305.16;5088229;28;20247;-73
2021/12/18 07:39:06;;;;;;;13.13;12.33;;;;;;;0.41;82.30;93305.56;5087407;28;20217;-73
2021/12/18 07:41:32;;;;;;;23.10;18.87;;;;;;;0.74;81.45;93305.50;5085105;28;20211;-73
2021/12/18 07:43:57;;;;;;;15.50;14.10;;;;;;;0.41;81.85;93308.16;5068319;28;20213;-73
2021/12/18 07:46:23;;;;;;;18.60;16.87;;;;;;;0.27;83.74;93303.22;5065971;28;20277;-71
2021/12/18 07:48:48;;;;;;;19.63;17.43;;;;;;;0.29;82.46;93296.91;5064063;28;20233;-71
2021/12/18 07:51:14;;;;;;;17.77;15.97;;;;;;;0.32;82.24;93301.66;5068406;28;20217;-72
2021/12/18 07:53:39;;;;;;;15.57;14.13;;;;;;;0.51;81.58;93318.81;5082680;28;21634;-71
2021/12/18 07:56:05;;;;;;;18.80;17.20;;;;;;;0.65;80.65;93320.38;5087585;28;20258;-73
2021/12/18 07:58:31;;;;;;;16.43;14.90;;;;;;;0.95;81.34;93318.88;5088400;28;20236;-72
2021/12/18 08:00:57;;;;;;;18.27;16.63;;;;;;;1.04;80.57;93329.72;5087611;28;20200;-72
2021/12/18 08:03:22;;;;;;;16.30;14.90;;;;;;;0.65;80.10;93302.38;5074901;28;20217;-72
2021/12/18 08:05:48;;;;;;;15.80;14.57;;;;;;;0.75;80.71;93336.13;5064588;28;20231;-72
2021/12/18 08:08:13;;;;;;;21.83;19.60;;;;;;;0.70;81.23;93341.06;5068160;28;20248;-72
2021/12/18 08:10:39;;;;;;;16.10;14.60;;;;;;;0.36;83.54;93338.00;5066415;28;20208;-73
2021/12/18 08:13:04;;;;;;;20.57;17.33;;;;;;;0.53;82.28;93345.06;5067728;28;20247;-72
2021/12/18 08:15:30;;;;;;;26.90;20.70;;;;;;;0.24;82.38;93360.09;5065494;28;20298;-73
2021/12/18 08:17:58;;;;;;;18.90;16.93;;;;;;;0.26;83.16;93358.13;5066372;28;20221;-72
2021/12/18 08:20:24;;;;;;;15.70;14.30;;;;;;;0.25;82.79;93346.28;5067154;28;20251;-72
2021/12/18 08:22:49;;;;;;;16.00;14.53;;;;;;;0.47;82.60;93356.13;5065672;28;20229;-72
2021/12/18 08:25:15;;;;;;;16.30;14.60;;;;;;;0.86;83.57;93356.06;5067551;28;20201;-72
2021/12/18 08:27:41;;;;;;;13.83;12.73;;;;;;;0.96;79.61;93360.78;5066727;28;20225;-71
2021/12/18 08:30:07;;;;;;;18.90;17.10;;;;;;;1.14;77.68;93341.16;5067915;28;20205;-71
2021/12/18 08:32:32;;;;;;;17.73;16.13;;;;;;;1.07;77.63;93342.19;5071128;28;21312;-76
2021/12/18 08:34:58;;;;;;;15.63;14.33;;;;;;;1.14;76.35;93342.94;5073696;28;20201;-73
2021/12/18 08:37:23;;;;;;;14.40;13.40;;;;;;;0.88;81.63;93351.53;5073306;28;20260;-74
2021/12/18 08:39:49;;;;;;;13.87;12.87;;;;;;;1.28;81.93;93363.25;5068699;28;20227;-73
2021/12/18 08:42:15;;;;;;;15.63;14.33;;;;;;;1.51;83.21;93345.53;5072067;28;20245;-74
2021/12/18 08:44:40;;;;;;;13.00;12.10;;;;;;;1.50;76.99;93361.19;5070375;28;20190;-73
2021/12/18 08:47:06;;;;;;;12.57;11.67;;;;;;;1.21;74.13;93367.66;5070978;28;20240;-73
2021/12/18 08:49:32;;;;;;;15.03;13.97;;;;;;;0.94;75.38;93365.34;5066950;28;20193;-74
2021/12/18 08:51:58;;;;;;;13.13;12.23;;;;;;;1.12;76.74;93361.13;5068731;28;20189;-73
2021/12/18 08:54:25;;;;;;;13.00;12.03;;;;;;;1.27;78.27;93338.53;5071830;28;20190;-73
2021/12/18 08:56:50;;;;;;;14.67;13.53;;;;;;;1.11;74.28;93338.19;5070662;28;20194;-74
2021/12/18 08:59:16;;;;;;;13.30;12.50;;;;;;;1.11;73.06;93356.19;5071812;28;20212;-73
2021/12/18 09:01:41;;;;;;;11.83;11.17;;;;;;;1.34;73.16;93356.50;5069663;28;20202;-73
2021/12/18 09:04:07;;;;;;;13.17;12.27;;;;;;;2.00;72.80;93349.22;5070420;28;20225;-74
2021/12/18 09:06:32;;;;;;;14.63;13.30;;;;;;;2.14;70.66;93359.22;5071433;28;20201;-73
2021/12/18 09:08:58;;;;;;;16.80;15.40;;;;;;;1.52;71.16;93357.44;5070482;28;20225;-76
2021/12/18 09:11:24;;;;;;;14.70;13.30;;;;;;;1.02;73.21;93347.94;5070818;28;20277;-72
2021/12/18 09:13:49;;;;;;;14.70;13.73;;;;;;;0.95;73.34;93354.09;5085516;28;20260;-73
2021/12/18 09:16:15;;;;;;;14.17;12.97;;;;;;;0.72;74.28;93321.13;5089236;28;20224;-73
2021/12/18 09:18:40;;;;;;;15.30;14.03;;;;;;;1.10;75.10;93345.13;5091264;28;20225;-73
2021/12/18 09:21:06;;;;;;;15.23;14.17;;;;;;;1.67;72.78;93347.66;5089742;28;20189;-72
2021/12/18 09:23:32;;;;;;;17.87;16.10;;;;;;;1.47;72.04;93356.44;5091613;28;20251;-74
2021/12/18 09:25:57;;;;;;;17.53;15.80;;;;;;;0.69;74.90;93303.53;5089467;28;20221;-73
2021/12/18 09:28:23;;;;;;;17.43;15.97;;;;;;;0.90;74.43;93341.03;5090907;28;20229;-72
2021/12/18 09:30:48;;;;;;;16.33;14.83;;;;;;;1.00;74.78;93342.19;5091908;28;20216;-73
2021/12/18 09:33:16;;;;;;;15.27;14.07;;;;;;;1.21;73.35;93346.28;5090107;28;20228;-71
2021/12/18 09:35:42;;;;;;;17.83;16.27;;;;;;;1.71;71.88;93354.94;5090169;28;20181;-71
2021/12/18 09:38:07;;;;;;;13.93;12.73;;;;;;;1.65;71.87;93347.06;5089150;28;21143;-70
2021/12/18 09:40:33;;;;;;;15.47;14.27;;;;;;;1.37;73.28;93349.16;5122530;28;20185;-72
2021/12/18 09:42:59;;;;;;;15.10;13.90;;;;;;;1.57;73.29;93337.00;5089922;28;20224;-73
2021/12/18 09:45:25;;;;;;;14.80;13.57;;;;;;;1.55;72.32;93344.16;5089595;28;20192;-71
2021/12/18 09:47:51;;;;;;;15.83;14.43;;;;;;;1.69;71.70;93344.84;5081158;28;20225;-72
2021/12/18 09:50:19;;;;;;;15.47;14.17;;;;;;;1.81;71.05;93339.81;5069478;28;20328;-70
2021/12/18 09:52:44;;;;;;;17.60;16.17;;;;;;;1.87;70.76;93334.63;5069616;28;20244;-74
2021/12/18 09:55:11;;;;;;;17.60;16.03;;;;;;;1.83;72.34;93346.34;5069574;28;20248;-73
2021/12/18 09:57:38;;;;;;;16.23;14.63;;;;;;;1.68;72.43;93345.88;5070286;28;20229;-72
2021/12/18 10:00:18;;;;;;;19.13;17.43;;;;;;;1.45;74.29;93346.38;5071586;28;20198;-71
2021/12/18 10:02:44;;;;;;;17.10;15.60;;;;;;;1.13;76.13;93339.59;5076908;28;20220;-72
2021/12/18 10:05:28;;;;;;;20.10;18.20;;;;;;;1.51;75.51;93319.81;5089523;28;20226;-71
2021/12/18 10:08:12;;;;;;;24.97;22.13;;;;;;;1.89;74.80;93342.94;5088824;28;20239;-71
2021/12/18 10:10:56;;;;;;;19.93;18.13;;;;;;;1.95;74.55;93333.59;5089602;28;20272;-72
2021/12/18 10:13:21;;;;;;;18.23;16.37;;;;;;;2.39;72.81;93333.47;5089733;28;20244;-73
2021/12/18 10:16:14;;;;;;;16.70;15.10;;;;;;;1.84;72.80;93318.84;5090272;28;20249;-72
2021/12/18 10:18:39;;;;;;;18.37;16.67;;;;;;;1.98;75.14;93320.34;5089465;28;20220;-74
2021/12/18 10:21:14;;;;;;;17.70;15.97;;;;;;;1.95;74.41;93325.88;5090382;28;20214;-74
2021/12/18 10:23:44;;;;;;;16.10;14.50;;;;;;;1.64;73.65;93327.47;5089481;28;20338;-75
2021/12/18 10:26:35;;;;;;;17.57;16.23;;;;;;;1.77;72.94;93328.38;5089363;28;20201;-75
2021/12/18 10:29:01;;;;;;;14.27;13.27;;;;;;;2.25;72.55;93326.84;5089564;28;20228;-76
2021/12/18 10:31:39;;;;;;;12.17;11.27;;;;;;;1.92;69.46;93327.09;5089315;28;20216;-74
2021/12/18 10:34:24;;;;;;;12.73;11.93;;;;;;;1.64;69.20;93303.50;5088569;28;20232;-75
2021/12/18 10:37:10;;;;;;;12.70;11.90;;;;;;;1.68;69.81;93336.34;5086913;28;20296;-74
2021/12/18 10:39:38;;;;;;;13.53;12.53;;;;;;;1.71;70.22;93321.50;5068526;28;20205;-75
2021/12/18 10:42:25;;;;;;;13.93;12.93;;;;;;;1.56;70.06;93326.91;5069010;28;20300;-75
2021/12/18 10:45:06;;;;;;;12.37;11.37;;;;;;;1.93;68.92;93325.31;5066916;28;21211;-74
2021/12/18 10:47:47;;;;;;;13.13;12.10;;;;;;;1.87;68.99;93318.44;5069785;28;20267;-75
2021/12/18 10:50:35;;;;;;;12.70;11.77;;;;;;;2.14;68.27;93320.59;5068861;28;20296;-75
2021/12/18 10:53:10;;;;;;;15.37;14.13;;;;;;;2.05;68.75;93300.47;5077839;28;20305;-75
2021/12/18 10:55:37;;;;;;;13.97;12.77;;;;;;;1.52;71.34;93311.13;5089083;28;20187;-76
2021/12/18 10:58:05;;;;;;;14.90;13.83;;;;;;;1.44;71.67;93284.84;5118311;28;20251;-76
2021/12/18 11:00:33;;;;;;;13.63;12.37;;;;;;;2.12;71.75;93308.94;5089986;28;20280;-75
2021/12/18 11:03:12;;;;;;;15.93;14.63;;;;;;;1.74;72.07;93285.84;5088530;28;20719;-75
2021/12/18 11:05:37;;;;;;;14.47;13.07;;;;;;;2.42;68.91;93302.13;5086229;28;20234;-75
2021/12/18 11:08:11;;;;;;;16.03;14.53;;;;;;;2.26;73.20;93310.38;5089099;28;20216;-72
2021/12/18 11:10:43;;;;;;;13.50;12.23;;;;;;;2.32;69.06;93301.84;5088210;28;20212;-73
2021/12/18 11:15:54;;;;;;;14.13;12.93;;;;;;;2.76;67.32;93301.59;5089282;28;20257;-77
2021/12/18 11:18:20;;;;;;;14.67;13.47;;;;;;;2.82;66.19;93317.00;5087746;28;20225;-77
2021/12/18 11:20:52;;;;;;;15.13;14.03;;;;;;;2.61;67.35;93303.72;5105010;28;20176;-76
2021/12/18 11:23:26;;;;;;;15.97;14.40;;;;;;;2.67;66.33;93308.03;5075267;28;20243;-76
2021/12/18 11:25:54;;;;;;;15.27;14.07;;;;;;;2.41;66.41;93288.44;5067616;28;20215;-77
2021/12/18 11:28:23;;;;;;;15.33;14.03;;;;;;;2.47;66.75;93289.41;5066576;28;20956;-78
2021/12/18 11:30:50;;;;;;;15.27;13.87;;;;;;;2.22;68.24;93322.13;5065997;28;20300;-77
2021/12/18 11:33:15;;;;;;;18.37;16.57;;;;;;;1.88;71.26;93309.69;5068890;28;20225;-77
2021/12/18 11:35:42;;;;;;;17.23;15.73;;;;;;;2.28;69.39;93291.16;5069431;28;20212;-76
2021/12/18 11:38:09;;;;;;;14.23;12.83;;;;;;;2.00;69.86;93297.72;5068261;28;20235;-77
2021/12/18 11:40:38;;;;;;;12.50;11.50;;;;;;;2.15;67.18;93316.25;5068915;28;20212;-77
2021/12/18 11:43:07;;;;;;;11.60;10.70;;;;;;;2.11;67.25;93307.34;5065025;28;20226;-76
2021/12/18 11:45:36;;;;;;;10.93;10.33;;;;;;;2.18;65.28;93320.97;5068035;28;20182;-77
2021/12/18 11:48:05;;;;;;;11.23;10.17;;;;;;;1.94;65.72;93295.97;5066231;28;20244;-77
2021/12/18 11:50:36;;;;;;;11.50;10.90;;;;;;;2.34;65.20;93315.28;5069032;28;20224;-76
2021/12/18 11:53:08;;;;;;;10.73;10.10;;;;;;;2.25;65.24;93290.78;5083222;28;20225;-77
2021/12/18 11:55:48;;;;;;;11.23;10.63;;;;;;;2.52;66.67;93313.50;5067489;28;20190;-75
2021/12/18 11:58:16;;;;;;;12.33;11.63;;;;;;;2.20;65.67;93313.81;5080368;28;20244;-73
2021/12/18 12:01:05;;;;;;;11.17;10.67;;;;;;;2.14;64.38;93315.44;5121715;28;20196;-72
2021/12/18 12:03:43;;;;;;;11.47;10.73;;;;;;;2.05;66.25;93311.56;5070641;28;20276;-73
2021/12/18 12:06:31;;;;;;;11.80;11.10;;;;;;;1.95;66.61;93307.84;5087187;28;20188;-75
2021/12/18 12:09:38;;;;;;;10.40;9.80;;;;;;;1.75;65.78;93313.16;5088786;28;20231;-74
2021/12/18 12:12:06;;;;;;;10.17;9.57;;;;;;;1.43;65.82;93288.41;5087739;28;21548;-76
2021/12/18 12:14:34;;;;;;;11.43;10.83;;;;;;;1.42;65.74;93303.03;5089777;28;20224;-75
2021/12/18 12:17:27;;;;;;;13.00;11.90;;;;;;;1.39;66.16;93293.19;5094050;28;20224;-74